West Lafayette, IN

11:55 AM EDT on March 30, 2017 (GMT -0400)
Lindberg Village | | Change Station

Elev 614 ft 40.45 °N, 86.97 °W | Updated 30 seconds ago

Mostly Cloudy
Mostly Cloudy
48.4 °F
Feels Like 46 °F
N
5.1
Wind Variable Wind from SE
Gusts 7.8 mph

Today
High -- | Low -- °F
--% Chance of Precip.
Yesterday
High -- | Low -- °F
Precip. -- in
Pressure 29.71 in
Visibility 4.0 miles
Clouds Scattered Clouds 4100 ft
Scattered Clouds 5500 ft
Mostly Cloudy 10000 ft
Windchill 46 °F
Dew Point 47 °F
Humidity 93%
Rainfall 0.49 in
Snow Depth Not available.
7:34 AM 8:10 PM
Waxing Crescent, 9% visible
METAR KLAF 301454Z 07010KT 4SM BR SCT041 SCT055 BKN100 08/07 A2971 RMK AO2 LTG DSNT N AND NE RAE13B19E43 TSE09B19E34 PRESFR SLP061 P0000 60018 T00780072 58009
Pressure 29.71 in
Visibility 4.0 miles
Clouds Scattered Clouds 4100 ft
Scattered Clouds 5500 ft
Mostly Cloudy 10000 ft
Windchill 46 °F
Dew Point 47 °F
Humidity 93%
Rainfall 0.49 in
Snow Depth Not available.
7:34 AM 8:10 PM
Waxing Crescent, 9% visible
METAR KLAF 301454Z 07010KT 4SM BR SCT041 SCT055 BKN100 08/07 A2971 RMK AO2 LTG DSNT N AND NE RAE13B19E43 TSE09B19E34 PRESFR SLP061 P0000 60018 T00780072 58009

Get Severe Weather Alerts

Thanks for signing up!

Be on the lookout for a verification email in your inbox.

You'll start receiving the daily forecast at 8 AM.

×

10-Day Weather Forecast

Almanac

Astronomy

Mar. 30, 2017 Rise Set
Actual Time
Civil Twilight
Nautical Twilight
Astronomical Twilight
Moon
Length of Visible Light
Length of Day
Tomorrow will be .
, % of the Moon is Illuminated

Today's Extremes

State Highs State Lows

Community

WunderPhotos

Upload Photos

1,962,540 photos uploaded!

WunderBlog® & News

Nearby

Air Quality

  Air Quality AQ Index Pollutant
Not available.

Snow Depth

Station Depth Elevation

Earthquake Activity

City Distance Mag. Time & Date
Minimum magnitude displayed is 2.5.

Earthquake Activity

City Distance Mag. Time & Date
Minimum magnitude displayed is 2.5.

Coastal Water Temperatures

Place Temperature

Stations

Nearby Weather Stations

Station Location Temp. Windchill Dew Point Humidity Wind Precip. Elev Updated Type
                   

Watches & Warnings

There are currently no watches in effect.